Bookmark and Share
Track history (hours):
 

Leni P.

Last reported at 2014-Mar-09 09:05 UTC. Time now 2014-Apr-16 19:21 UTC.
Position N 50°10' W 001°57'.
Warning: this ship's position is 38 days out of date.

Length 274 m; draft 14.2 m.

Type: Tanker. MMSI: 636014986.

NotesDate/timePositionNaut miles runAvg speedWind from/ knotsBaromVisibWave heightAir tempDewpointWater temp
2014-Mar-09 09:05N 50°10' W 001°57'2114.0
2014-Mar-09 07:33N 50°15' W 001°24'1414.1
2014-Mar-09 06:33N 50°19' W 001°03'1313.4
2014-Mar-09 05:34N 50°22' W 000°43'1312.7
2014-Mar-09 04:34N 50°25' W 000°24'1212.1
2014-Mar-09 03:33N 50°28' W 000°05'1111.2
2014-Mar-09 02:33N 50°31' E 000°12'1110.9
2014-Mar-09 01:33N 50°35' E 000°28'1111.2
2014-Mar-09 00:33N 50°40' E 000°44'1212.2
2014-Mar-08 23:33N 50°46' E 001°00'1313.4
2014-Mar-08 22:34N 50°54' E 001°17'1211.7
2014-Mar-08 21:33N 51°03' E 001°30'710.6
2014-Mar-08 20:53N 51°08' E 001°38'3 9.6
2014-Mar-08 20:33N 51°10' E 001°41'1111.0
2014-Mar-08 19:33N 51°19' E 001°51'1211.5
2014-Mar-08 18:33N 51°29' E 002°01'1211.9
2014-Mar-08 17:32N 51°38' E 002°13'1211.6
2014-Mar-08 16:29N 51°47' E 002°27'1212.2
2014-Mar-08 15:30N 51°58' E 002°34'7412.5
2014-Mar-08 09:33N 53°07' E 003°22'1110.8
2014-Mar-08 08:33N 53°17' E 003°27'1211.1
2014-Mar-08 07:29N 53°28' E 003°33'1111.7
2014-Mar-08 06:33N 53°39' E 003°39'16611.8
2014-Mar-07 16:32N 56°02' E 006°03'166 9.6
2014-Mar-06 23:16N 57°49' E 009°56'811.6
2014-Mar-06 22:33N 57°49' E 010°11'1111.5
2014-Mar-06 21:33N 57°49' E 010°33'1010.0
2014-Mar-06 20:33N 57°46' E 010°50'1111.1
2014-Mar-06 19:33N 57°38' E 011°05'1212.4
2014-Mar-06 18:33N 57°30' E 011°22'8 7.9
2014-Mar-06 17:33N 57°23' E 011°29'1111.4
2014-Mar-06 16:33N 57°12' E 011°37'1312.9
2014-Mar-06 15:33N 56°60' E 011°44'1212.1
2014-Mar-06 14:32N 56°48' E 011°51'1111.2
2014-Mar-06 13:33N 56°38' E 011°45'1313.1
2014-Mar-06 12:33N 56°26' E 011°33'1413.4
2014-Mar-06 11:32N 56°15' E 011°21'1613.3
2014-Mar-06 10:21N 56°02' E 011°06'5110.3
2014-Mar-06 05:27N 55°11' E 011°03'2611.7
2014-Mar-06 03:15N 54°47' E 010°49'1910.1
2014-Mar-06 01:22N 54°35' E 011°14'1012.7
2014-Mar-06 00:33N 54°30' E 011°30'1211.9
2014-Mar-05 23:33N 54°26' E 011°49'1111.3
2014-Mar-05 22:33N 54°26' E 012°09'1110.6
2014-Mar-05 21:33N 54°36' E 012°17'1110.8
2014-Mar-05 20:33N 54°42' E 012°32'2311.7
2014-Mar-05 18:33N 54°52' E 013°09'1312.6
2014-Mar-05 17:33N 54°57' E 013°29'1212.4
2014-Mar-05 16:33N 55°02' E 013°49'1212.4
2014-Mar-05 15:33N 55°07' E 014°08'1212.4
2014-Mar-05 14:33N 55°12' E 014°28'1211.6
2014-Mar-05 13:33N 55°19' E 014°43'1111.2
2014-Mar-05 12:33N 55°24' E 015°02'1212.5
2014-Mar-05 11:33N 55°28' E 015°22'1212.3
2014-Mar-05 10:33N 55°33' E 015°42'34711.6
2014-Mar-04 04:33N 59°37' E 023°24'1312.5
2014-Mar-04 03:32N 59°40' E 023°48'1212.4
2014-Mar-04 02:33N 59°44' E 024°11'1211.9
2014-Mar-04 01:33N 59°44' E 024°34'1313.0
2014-Mar-04 00:34N 59°35' E 024°53'  
2014-Feb-27 22:08N 59°30' E 024°58'2 2.5
2014-Feb-27 21:14N 59°32' E 024°57'12 7.3
2014-Feb-27 19:33N 59°42' E 024°42'1111.0
2014-Feb-27 18:33N 59°42' E 024°20'1212.4
2014-Feb-27 17:33N 59°38' E 023°57'1312.6
2014-Feb-27 16:29N 59°34' E 023°31'  

Dump ship's entire track history

sailing weather and tide predictions

Leni P. — A8XW5 — position and weather